createdAt,value
2019-05-05T00:00:16.244Z,1.09
2019-05-05T00:02:49.173Z,1.03
2019-05-05T00:05:19.477Z,1.01
2019-05-05T00:07:48.081Z,0.97
2019-05-05T00:10:18.378Z,0.95
2019-05-05T00:12:55.117Z,0.91
2019-05-05T00:15:40.507Z,0.88
2019-05-05T00:18:09.165Z,0.85
2019-05-05T00:20:37.747Z,0.83
2019-05-05T00:23:06.406Z,0.81
2019-05-05T00:25:34.992Z,0.78
2019-05-05T00:28:05.000Z,0.75
2019-05-05T00:30:34.339Z,0.73
2019-05-05T00:33:06.231Z,0.72
2019-05-05T00:35:34.862Z,0.72
2019-05-05T00:38:05.086Z,0.73
2019-05-05T00:40:35.312Z,0.75
2019-05-05T00:43:05.356Z,0.75
2019-05-05T00:45:34.985Z,0.75
2019-05-05T00:48:11.168Z,0.75
2019-05-05T00:50:39.779Z,0.72
2019-05-05T00:53:08.447Z,0.70
2019-05-05T00:55:37.052Z,0.70
2019-05-05T00:58:05.610Z,0.69
2019-05-05T01:00:50.952Z,0.68
2019-05-05T01:03:21.182Z,0.67
2019-05-05T01:05:55.324Z,0.68
2019-05-05T01:08:27.417Z,0.66
2019-05-05T01:10:56.037Z,0.65
2019-05-05T01:13:24.697Z,0.64
2019-05-05T01:15:54.232Z,0.65
2019-05-05T01:18:24.547Z,0.69
2019-05-05T01:20:55.063Z,0.73
2019-05-05T01:23:24.395Z,0.79
2019-05-05T01:25:54.409Z,0.82
2019-05-05T01:28:24.909Z,0.89
2019-05-05T01:30:55.423Z,0.95
2019-05-05T01:33:31.128Z,1.01
2019-05-05T01:35:59.762Z,1.10
2019-05-05T01:38:44.952Z,1.18
2019-05-05T01:41:30.268Z,1.26
2019-05-05T01:43:58.854Z,1.35
2019-05-05T01:46:27.485Z,1.43
2019-05-05T01:48:56.050Z,1.51
2019-05-05T01:51:24.874Z,1.59
2019-05-05T01:53:54.538Z,1.66
2019-05-05T01:56:24.666Z,1.72
2019-05-05T01:58:54.768Z,1.78
2019-05-05T02:01:24.651Z,1.85
2019-05-05T02:03:54.896Z,1.93
2019-05-05T02:06:24.789Z,1.99
2019-05-05T02:08:54.787Z,2.03
2019-05-05T02:11:24.697Z,2.06
2019-05-05T02:13:54.584Z,2.09
2019-05-05T02:16:25.409Z,2.12
2019-05-05T02:18:54.486Z,2.15
2019-05-05T02:21:24.725Z,2.18
2019-05-05T02:23:54.731Z,2.25
2019-05-05T02:26:24.548Z,2.30
2019-05-05T02:29:00.879Z,2.37
2019-05-05T02:31:31.090Z,2.44
2019-05-05T02:33:59.739Z,2.50
2019-05-05T02:36:28.358Z,2.56
2019-05-05T02:38:57.022Z,2.58
2019-05-05T02:41:25.893Z,2.59
2019-05-05T02:43:55.958Z,2.58
2019-05-05T02:46:27.074Z,2.56
2019-05-05T02:48:57.852Z,2.54
2019-05-05T02:51:27.811Z,2.53
2019-05-05T02:53:58.766Z,2.51
2019-05-05T02:56:34.089Z,2.49
2019-05-05T02:59:06.151Z,2.47
2019-05-05T03:01:44.646Z,2.43
2019-05-05T03:04:14.189Z,2.39
2019-05-05T03:06:45.928Z,2.40
2019-05-05T03:09:15.082Z,2.39
2019-05-05T03:11:45.942Z,2.37
2019-05-05T03:14:15.702Z,2.35
2019-05-05T03:16:44.476Z,2.33
2019-05-05T03:19:14.211Z,2.34
2019-05-05T03:21:44.185Z,2.36
2019-05-05T03:24:14.353Z,2.41
2019-05-05T03:26:44.416Z,2.44
2019-05-05T03:29:14.913Z,2.44
2019-05-05T03:31:45.914Z,2.42
2019-05-05T03:34:16.433Z,2.37
2019-05-05T03:36:44.985Z,2.31
2019-05-05T03:39:15.193Z,2.26
2019-05-05T03:41:45.510Z,2.21
2019-05-05T03:44:15.925Z,2.16
2019-05-05T03:46:45.906Z,2.12
2019-05-05T03:49:14.528Z,2.09
2019-05-05T03:51:44.000Z,2.04
2019-05-05T03:54:14.668Z,2.01
2019-05-05T03:56:44.288Z,1.96
2019-05-05T03:59:14.164Z,1.94
2019-05-05T04:01:50.907Z,1.93
2019-05-05T04:04:27.270Z,1.91
2019-05-05T04:06:57.786Z,1.89
2019-05-05T04:09:26.697Z,1.87
2019-05-05T04:11:55.278Z,1.85
2019-05-05T04:14:25.042Z,1.84
2019-05-05T04:17:13.950Z,1.86
2019-05-05T04:19:43.965Z,1.88
2019-05-05T04:22:13.525Z,1.90
2019-05-05T04:24:43.540Z,1.92
2019-05-05T04:27:14.388Z,1.93
2019-05-05T04:29:43.926Z,2.00
2019-05-05T04:32:14.002Z,2.09
2019-05-05T04:34:43.932Z,2.19
2019-05-05T04:37:14.644Z,2.27
2019-05-05T04:39:44.434Z,2.33
2019-05-05T04:42:14.064Z,2.37
2019-05-05T04:44:44.951Z,2.43
2019-05-05T04:47:14.730Z,2.50
2019-05-05T04:49:47.688Z,2.56
2019-05-05T04:52:17.889Z,2.59
2019-05-05T04:54:48.099Z,2.61
2019-05-05T04:57:16.686Z,2.64
2019-05-05T04:59:46.224Z,2.68
2019-05-05T05:02:34.147Z,2.71
2019-05-05T05:05:16.515Z,2.74
2019-05-05T05:07:45.148Z,2.76
2019-05-05T05:10:14.005Z,2.81
2019-05-05T05:12:43.592Z,2.89
2019-05-05T05:15:14.433Z,2.99
2019-05-05T05:17:44.533Z,3.12
2019-05-05T05:20:14.154Z,3.29
2019-05-05T05:22:43.968Z,3.46
2019-05-05T05:25:13.614Z,3.61
2019-05-05T05:27:44.159Z,3.74
2019-05-05T05:30:13.716Z,3.89
2019-05-05T05:32:44.326Z,3.99
2019-05-05T05:35:14.073Z,4.08
2019-05-05T05:37:44.833Z,4.23
2019-05-05T05:40:20.586Z,4.45
2019-05-05T05:42:49.151Z,4.74
2019-05-05T05:45:23.753Z,4.88
2019-05-05T05:47:56.758Z,4.93
2019-05-05T05:50:45.350Z,4.98
2019-05-05T05:53:14.113Z,5.01
2019-05-05T05:55:44.658Z,5.04
2019-05-05T05:58:14.083Z,5.13
2019-05-05T06:00:44.271Z,5.26
2019-05-05T06:03:14.059Z,5.38
2019-05-05T06:05:43.607Z,5.49
2019-05-05T06:08:14.149Z,5.60
2019-05-05T06:10:44.282Z,5.67
2019-05-05T06:13:15.302Z,5.76
2019-05-05T06:15:44.360Z,5.86
2019-05-05T06:18:13.852Z,5.93
2019-05-05T06:20:44.569Z,5.97
2019-05-05T06:23:14.676Z,5.98
2019-05-05T06:25:44.470Z,6.00
2019-05-05T06:28:14.512Z,5.99
2019-05-05T06:30:44.285Z,5.98
2019-05-05T06:33:13.815Z,6.00
2019-05-05T06:35:44.280Z,6.01
2019-05-05T06:38:13.590Z,6.03
2019-05-05T06:40:44.477Z,6.02
2019-05-05T06:43:29.973Z,6.06
2019-05-05T06:46:06.413Z,6.09
2019-05-05T06:48:35.067Z,6.11
2019-05-05T06:51:04.030Z,6.20
2019-05-05T06:53:34.163Z,6.27
2019-05-05T06:56:04.067Z,6.38
2019-05-05T06:58:34.567Z,6.49
2019-05-05T07:01:03.610Z,6.60
2019-05-05T07:03:33.657Z,6.67
2019-05-05T07:06:04.259Z,6.77
2019-05-05T07:08:34.776Z,6.86
2019-05-05T07:11:04.074Z,6.91
2019-05-05T07:13:33.905Z,6.96
2019-05-05T07:16:04.719Z,7.02
2019-05-05T07:18:34.128Z,7.07
2019-05-05T07:21:03.683Z,7.21
2019-05-05T07:23:34.118Z,7.31
2019-05-05T07:26:04.101Z,7.46
2019-05-05T07:28:34.197Z,7.64
2019-05-05T07:31:04.386Z,7.82
2019-05-05T07:33:34.594Z,8.00
2019-05-05T07:36:16.894Z,8.31
2019-05-05T07:38:47.098Z,8.51
2019-05-05T07:41:15.670Z,8.78
2019-05-05T07:43:44.241Z,9.18
2019-05-05T07:46:13.551Z,9.64
2019-05-05T07:48:44.205Z,10.37
2019-05-05T07:51:14.160Z,11.15
2019-05-05T07:53:44.245Z,11.95
2019-05-05T07:56:15.858Z,12.65
2019-05-05T07:58:44.465Z,13.26
2019-05-05T08:01:14.059Z,13.83
2019-05-05T08:03:44.664Z,14.38
2019-05-05T08:06:14.477Z,14.83
2019-05-05T08:08:44.291Z,15.06
2019-05-05T08:11:14.745Z,14.84
2019-05-05T08:13:44.342Z,14.55
2019-05-05T08:16:20.482Z,14.04
2019-05-05T08:19:08.737Z,13.43
2019-05-05T08:21:37.578Z,12.65
2019-05-05T08:24:10.614Z,11.95
2019-05-05T08:26:40.804Z,11.47
2019-05-05T08:29:27.155Z,11.03
2019-05-05T08:31:57.393Z,10.76
2019-05-05T08:34:25.995Z,10.50
2019-05-05T08:36:54.600Z,10.35
2019-05-05T08:39:24.373Z,10.47
2019-05-05T08:41:53.837Z,11.08
2019-05-05T08:44:23.627Z,12.02
2019-05-05T08:46:53.744Z,12.81
2019-05-05T08:49:24.441Z,13.09
2019-05-05T08:51:54.686Z,13.09
2019-05-05T08:54:23.646Z,13.08
2019-05-05T08:56:52.228Z,13.25
2019-05-05T08:59:20.865Z,13.43
2019-05-05T09:01:49.472Z,13.59
2019-05-05T09:04:18.047Z,13.96
2019-05-05T09:06:46.859Z,14.44
2019-05-05T09:09:15.435Z,15.09
2019-05-05T09:11:44.034Z,15.66
2019-05-05T09:14:14.655Z,16.40
2019-05-05T09:16:44.770Z,17.03
2019-05-05T09:19:18.098Z,17.76
2019-05-05T09:21:46.768Z,18.29
2019-05-05T09:24:34.117Z,17.90
2019-05-05T09:27:14.147Z,17.29
2019-05-05T09:29:46.164Z,16.57
2019-05-05T09:32:14.736Z,15.98
2019-05-05T09:34:43.712Z,15.51
2019-05-05T09:37:14.353Z,14.97
2019-05-05T09:39:43.807Z,14.39
2019-05-05T09:42:14.508Z,13.83
2019-05-05T09:44:43.793Z,13.22
2019-05-05T09:47:13.675Z,12.62
2019-05-05T09:49:44.339Z,11.91
2019-05-05T09:52:14.013Z,11.29
2019-05-05T09:54:43.878Z,10.84
2019-05-05T09:57:14.566Z,10.43
2019-05-05T09:59:44.088Z,10.17
2019-05-05T10:02:13.178Z,9.98
2019-05-05T10:04:43.907Z,9.76
2019-05-05T10:07:13.736Z,9.69
2019-05-05T10:09:43.750Z,9.63
2019-05-05T10:12:12.557Z,9.54
2019-05-05T10:14:41.131Z,9.40
2019-05-05T10:17:09.707Z,9.28
2019-05-05T10:19:38.276Z,9.16
2019-05-05T10:22:06.852Z,9.16
2019-05-05T10:24:37.005Z,9.21
2019-05-05T10:27:05.653Z,9.33
2019-05-05T10:29:34.219Z,9.66
2019-05-05T10:32:04.550Z,10.03
2019-05-05T10:34:33.543Z,10.28
2019-05-05T10:37:04.160Z,10.79
2019-05-05T10:39:37.128Z,11.39
2019-05-05T10:42:05.699Z,11.95
2019-05-05T10:44:34.353Z,12.36
2019-05-05T10:47:04.586Z,12.66
2019-05-05T10:49:33.801Z,12.80
2019-05-05T10:52:03.767Z,12.92
2019-05-05T10:54:43.855Z,13.00
2019-05-05T10:57:03.994Z,13.50
2019-05-05T10:59:34.363Z,14.41
2019-05-05T11:02:04.930Z,15.25
2019-05-05T11:04:33.805Z,15.88
2019-05-05T11:07:04.241Z,16.52
2019-05-05T11:09:34.006Z,16.85
2019-05-05T11:12:02.673Z,17.39
2019-05-05T11:14:31.284Z,18.07
2019-05-05T11:17:00.155Z,18.56
2019-05-05T11:19:28.839Z,19.04
2019-05-05T11:21:57.527Z,19.34
2019-05-05T11:24:26.101Z,19.63
2019-05-05T11:26:55.070Z,19.59
2019-05-05T11:29:24.162Z,19.23
2019-05-05T11:31:53.845Z,18.35
2019-05-05T11:34:24.742Z,17.13
2019-05-05T11:37:07.110Z,15.98
2019-05-05T11:39:35.722Z,14.95
2019-05-05T11:42:04.563Z,13.84
2019-05-05T11:44:33.637Z,13.06
2019-05-05T11:47:03.696Z,12.38
2019-05-05T11:49:33.720Z,12.08
2019-05-05T11:52:04.634Z,11.76
2019-05-05T11:54:34.565Z,11.58
2019-05-05T11:57:05.185Z,11.42
2019-05-05T11:59:34.902Z,11.47
2019-05-05T12:02:04.578Z,11.70
2019-05-05T12:04:34.831Z,11.94
2019-05-05T12:07:04.997Z,12.13
2019-05-05T12:09:36.049Z,12.33
2019-05-05T12:12:05.147Z,12.50
2019-05-05T12:14:33.952Z,12.70
2019-05-05T12:17:04.575Z,13.18
2019-05-05T12:19:33.699Z,13.74
2019-05-05T12:22:02.806Z,14.30
2019-05-05T12:24:34.054Z,14.51
2019-05-05T12:27:06.025Z,14.84
2019-05-05T12:29:36.857Z,15.24
2019-05-05T12:32:06.164Z,15.65
2019-05-05T12:34:34.969Z,15.99
2019-05-05T12:37:07.241Z,16.19
2019-05-05T12:39:36.147Z,16.36
2019-05-05T12:42:05.189Z,16.30
2019-05-05T12:44:36.310Z,16.46
2019-05-05T12:47:16.047Z,16.65
2019-05-05T12:49:44.898Z,16.82
2019-05-05T12:52:14.001Z,17.02
2019-05-05T12:54:44.053Z,17.01
2019-05-05T12:57:13.665Z,17.15
2019-05-05T12:59:44.388Z,16.93
2019-05-05T13:02:14.262Z,16.39
2019-05-05T13:04:42.998Z,16.26
2019-05-05T13:07:13.635Z,16.05
2019-05-05T13:09:44.129Z,15.88
2019-05-05T13:12:15.055Z,15.96
2019-05-05T13:14:43.964Z,16.21
2019-05-05T13:17:14.209Z,16.45
2019-05-05T13:19:52.129Z,16.47
2019-05-05T13:22:25.397Z,16.75
2019-05-05T13:24:54.906Z,16.91
2019-05-05T13:27:37.476Z,17.11
2019-05-05T13:30:08.932Z,17.24
2019-05-05T13:32:37.539Z,17.39
2019-05-05T13:35:07.876Z,17.48
2019-05-05T13:37:36.531Z,17.05
2019-05-05T13:40:06.967Z,16.50
2019-05-05T13:42:35.638Z,15.91
2019-05-05T13:45:26.449Z,15.33
2019-05-05T13:47:55.119Z,14.81
2019-05-05T13:50:37.575Z,14.36
2019-05-05T13:53:06.216Z,14.10
2019-05-05T13:55:34.862Z,13.89
2019-05-05T13:58:03.994Z,13.91
2019-05-05T14:00:33.774Z,14.12
2019-05-05T14:03:03.875Z,14.54
2019-05-05T14:05:34.399Z,14.70
2019-05-05T14:08:04.178Z,14.60
2019-05-05T14:10:32.948Z,14.32
2019-05-05T14:13:03.549Z,14.04
2019-05-05T14:15:33.991Z,13.77
2019-05-05T14:18:03.793Z,13.48
2019-05-05T14:20:34.491Z,13.23
2019-05-05T14:23:03.895Z,12.97
2019-05-05T14:25:33.456Z,12.79
2019-05-05T14:28:03.697Z,12.70
2019-05-05T14:30:47.597Z,12.72
2019-05-05T14:33:18.396Z,12.82
2019-05-05T14:35:57.664Z,13.18
2019-05-05T14:39:21.325Z,13.53
2019-05-05T14:41:51.190Z,13.80
2019-05-05T14:44:21.049Z,13.91
2019-05-05T14:46:51.378Z,13.84
2019-05-05T14:49:21.062Z,13.98
2019-05-05T14:51:49.788Z,14.12
2019-05-05T14:54:18.485Z,14.14
2019-05-05T14:56:47.403Z,14.15
2019-05-05T14:59:17.212Z,14.19
2019-05-05T15:01:46.756Z,14.07
2019-05-05T15:04:18.924Z,14.01
2019-05-05T15:06:49.924Z,13.99
2019-05-05T15:09:29.951Z,13.92
2019-05-05T15:12:00.209Z,13.85
2019-05-05T15:14:28.855Z,13.73
2019-05-05T15:16:57.483Z,13.63
2019-05-05T15:19:26.082Z,13.48
2019-05-05T15:21:54.650Z,13.43
2019-05-05T15:24:24.426Z,13.43
2019-05-05T15:26:55.007Z,13.43
2019-05-05T15:29:25.186Z,13.45
2019-05-05T15:31:54.014Z,13.41
2019-05-05T15:34:24.054Z,13.32
2019-05-05T15:36:54.732Z,13.23
2019-05-05T15:39:24.610Z,13.14
2019-05-05T15:41:54.242Z,13.02
2019-05-05T15:44:24.093Z,12.90
2019-05-05T15:46:57.347Z,12.84
2019-05-05T15:49:23.533Z,12.75
2019-05-05T15:51:53.942Z,12.63
2019-05-05T15:54:23.643Z,12.57
2019-05-05T15:57:02.959Z,12.46
2019-05-05T15:59:23.949Z,12.31
2019-05-05T16:01:54.710Z,12.18
2019-05-05T16:04:23.625Z,12.08
2019-05-05T16:06:54.038Z,11.96
2019-05-05T16:09:22.819Z,11.82
2019-05-05T16:11:51.555Z,11.72
2019-05-05T16:14:20.953Z,11.67
2019-05-05T16:16:56.056Z,11.66
2019-05-05T16:19:35.651Z,11.68
2019-05-05T16:22:05.893Z,11.73
2019-05-05T16:24:36.710Z,11.79
2019-05-05T16:27:18.358Z,11.87
2019-05-05T16:29:35.785Z,11.92
2019-05-05T16:32:17.917Z,11.98
2019-05-05T16:34:35.188Z,11.97
2019-05-05T16:37:04.045Z,11.95
2019-05-05T16:39:33.539Z,11.90
2019-05-05T16:42:02.276Z,11.82
2019-05-05T16:44:30.849Z,11.76
2019-05-05T16:46:59.708Z,11.63
2019-05-05T16:49:28.539Z,11.51
2019-05-05T16:52:03.908Z,11.43
2019-05-05T16:54:33.998Z,11.30
2019-05-05T16:57:03.982Z,11.15
2019-05-05T16:59:34.069Z,10.99
2019-05-05T17:02:04.736Z,10.85
2019-05-05T17:04:35.516Z,10.73
2019-05-05T17:07:04.076Z,10.62
2019-05-05T17:09:34.437Z,10.52
2019-05-05T17:12:09.356Z,10.40
2019-05-05T17:14:40.453Z,10.32
2019-05-05T17:17:29.430Z,10.24
2019-05-05T17:19:59.652Z,10.19
2019-05-05T17:22:29.870Z,10.12
2019-05-05T17:24:59.410Z,10.06
2019-05-05T17:27:27.993Z,10.01
2019-05-05T17:29:56.684Z,9.98
2019-05-05T17:32:25.290Z,9.96
2019-05-05T17:34:54.227Z,9.95
2019-05-05T17:37:23.903Z,9.92
2019-05-05T17:39:54.672Z,9.91
2019-05-05T17:42:34.792Z,9.92
2019-05-05T17:45:17.468Z,9.92
2019-05-05T17:48:06.108Z,9.89
2019-05-05T17:50:54.766Z,9.89
2019-05-05T17:53:27.854Z,9.84
2019-05-05T17:55:58.076Z,9.80
2019-05-05T17:58:27.682Z,9.79
2019-05-05T18:00:58.003Z,9.75
2019-05-05T18:03:26.733Z,9.73
2019-05-05T18:06:06.057Z,9.68
2019-05-05T18:08:39.100Z,9.64
2019-05-05T18:11:18.206Z,9.59
2019-05-05T18:13:54.392Z,9.53
2019-05-05T18:16:26.930Z,9.45
2019-05-05T18:18:56.115Z,9.34
2019-05-05T18:21:30.365Z,9.25
2019-05-05T18:23:57.662Z,9.13
2019-05-05T18:26:26.265Z,9.02
2019-05-05T18:28:54.915Z,8.89
2019-05-05T18:31:24.294Z,8.78
2019-05-05T18:33:54.318Z,8.63
2019-05-05T18:36:24.828Z,8.50
2019-05-05T18:38:54.500Z,8.36
2019-05-05T18:41:40.969Z,8.23
2019-05-05T18:44:17.058Z,8.10
2019-05-05T18:46:47.449Z,8.01
2019-05-05T18:49:16.818Z,7.94
2019-05-05T18:51:45.491Z,7.87
2019-05-05T18:54:14.826Z,7.82
2019-05-05T18:56:45.417Z,7.75
2019-05-05T18:59:15.063Z,7.72
2019-05-05T19:01:45.641Z,7.69
2019-05-05T19:04:16.129Z,7.66
2019-05-05T19:06:46.676Z,7.62
2019-05-05T19:09:17.057Z,7.60
2019-05-05T19:11:46.264Z,7.56
2019-05-05T19:14:15.733Z,7.52
2019-05-05T19:16:45.753Z,7.46
2019-05-05T19:19:16.655Z,7.42
2019-05-05T19:22:22.025Z,7.39
2019-05-05T19:24:51.864Z,7.35
2019-05-05T19:27:21.653Z,7.32
2019-05-05T19:29:53.496Z,7.31
2019-05-05T19:32:23.373Z,7.32
2019-05-05T19:34:54.365Z,7.34
2019-05-05T19:37:24.020Z,7.36
2019-05-05T19:39:53.043Z,7.39
2019-05-05T19:42:23.978Z,7.42
2019-05-05T19:44:54.450Z,7.45
2019-05-05T19:47:24.738Z,7.46
2019-05-05T19:49:55.982Z,7.48
2019-05-05T19:52:25.683Z,7.49
2019-05-05T19:54:55.464Z,7.51
2019-05-05T19:57:25.488Z,7.53
2019-05-05T19:59:55.665Z,7.54
2019-05-05T20:05:46.631Z,7.52
2019-05-05T20:08:15.597Z,7.47
2019-05-05T20:10:45.319Z,7.46
2019-05-05T20:13:14.783Z,7.45
2019-05-05T20:15:53.760Z,7.44
2019-05-05T20:18:24.902Z,7.41
2019-05-05T20:21:03.655Z,7.38
2019-05-05T20:23:24.517Z,7.36
2019-05-05T20:25:53.792Z,7.34
2019-05-05T20:28:24.125Z,7.33
2019-05-05T20:30:54.106Z,7.32
2019-05-05T20:33:27.453Z,7.31
2019-05-05T20:36:03.803Z,7.29
2019-05-05T20:38:34.033Z,7.26
2019-05-05T20:41:10.192Z,7.22
2019-05-05T20:43:38.765Z,7.19
2019-05-05T20:46:07.542Z,7.11
2019-05-05T20:48:36.211Z,7.06
2019-05-05T20:51:05.238Z,7.03
2019-05-05T20:53:34.432Z,6.99
2019-05-05T20:56:04.278Z,6.97
2019-05-05T20:58:33.715Z,6.95
2019-05-05T21:01:04.670Z,6.93
2019-05-05T21:03:34.698Z,6.91
2019-05-05T21:06:04.461Z,6.90
2019-05-05T21:08:34.844Z,6.88
2019-05-05T21:11:04.431Z,6.86
2019-05-05T21:13:34.201Z,6.81
2019-05-05T21:16:03.001Z,6.79
2019-05-05T21:18:31.558Z,6.74
2019-05-05T21:21:01.810Z,6.69
2019-05-05T21:23:34.111Z,6.65
2019-05-05T21:26:06.930Z,6.61
2019-05-05T21:28:35.499Z,6.59
2019-05-05T21:31:04.859Z,6.52
2019-05-05T21:33:34.791Z,6.46
2019-05-05T21:36:04.233Z,6.42
2019-05-05T21:38:35.380Z,6.36
2019-05-05T21:41:04.260Z,6.29
2019-05-05T21:43:32.978Z,6.21
2019-05-05T21:46:01.545Z,6.12
2019-05-05T21:48:30.133Z,6.03
2019-05-05T21:51:04.690Z,5.93
2019-05-05T21:53:51.234Z,5.84
2019-05-05T21:56:24.885Z,5.73
2019-05-05T21:58:54.428Z,5.62
2019-05-05T22:01:27.075Z,5.51
2019-05-05T22:03:53.854Z,5.43
2019-05-05T22:06:24.149Z,5.34
2019-05-05T22:08:53.659Z,5.24
2019-05-05T22:11:24.256Z,5.13
2019-05-05T22:13:54.042Z,5.01
2019-05-05T22:16:22.883Z,4.88
2019-05-05T22:18:54.038Z,4.76
2019-05-05T22:21:24.453Z,4.68
2019-05-05T22:24:13.121Z,4.59
2019-05-05T22:26:44.325Z,4.50
2019-05-05T22:29:14.073Z,4.40
2019-05-05T22:31:42.836Z,4.30
2019-05-05T22:34:11.435Z,4.21
2019-05-05T22:36:40.210Z,4.12
2019-05-05T22:39:11.633Z,4.04
2019-05-05T22:41:40.211Z,3.95
2019-05-05T22:44:08.779Z,3.86
2019-05-05T22:46:37.420Z,3.79
2019-05-05T22:49:06.043Z,3.72
2019-05-05T22:51:34.608Z,3.65
2019-05-05T22:54:03.903Z,3.60
2019-05-05T22:56:33.769Z,3.54
2019-05-05T22:59:04.349Z,3.47
2019-05-05T23:01:33.021Z,3.44
2019-05-05T23:04:03.738Z,3.40
2019-05-05T23:06:34.039Z,3.37
2019-05-05T23:09:04.101Z,3.34
2019-05-05T23:11:32.782Z,3.31
2019-05-05T23:14:19.217Z,3.27
2019-05-05T23:16:49.461Z,3.24
2019-05-05T23:19:18.199Z,3.18
2019-05-05T23:21:48.443Z,3.14
2019-05-05T23:24:23.658Z,3.10
2019-05-05T23:26:54.562Z,3.06
2019-05-05T23:29:24.270Z,3.03
2019-05-05T23:31:53.909Z,2.99
2019-05-05T23:34:24.260Z,2.95
2019-05-05T23:36:53.581Z,2.94
2019-05-05T23:39:24.159Z,2.94
2019-05-05T23:41:54.486Z,2.95
2019-05-05T23:44:23.807Z,2.97
2019-05-05T23:46:53.773Z,2.97
2019-05-05T23:49:24.173Z,2.98
2019-05-05T23:51:53.998Z,2.95
2019-05-05T23:54:24.649Z,2.92
2019-05-05T23:56:53.792Z,2.89
2019-05-05T23:59:24.127Z,2.85
